Time;durP1;ratioP1;P1;durP2;ratioP2;P2;SDS_P1;SDS_P2;PMS_P1;PMS_P2;Temp;Humidity;BMP_temperature;BMP_pressure;BME280_temperature;BME280_humidity;BME280_pressure;Samples;Min_cycle;Max_cycle;Signal;HPM_P1;HPM_P2
2023/03/13 00:00:39;;;;;;;;;;;;;;;13.51;70.46;99777.31;1271482;23;1936;-65
2023/03/13 00:01:29;;;;;;;;;;;;;;;13.50;70.65;99775.63;1274225;23;645;-65
2023/03/13 00:02:20;;;;;;;;;;;;;;;13.49;71.14;99772.09;1272524;23;621;-65
2023/03/13 00:03:10;;;;;;;;;;;;;;;13.48;71.34;99767.72;1272557;23;622;-65
2023/03/13 00:04:01;;;;;;;;;;;;;;;13.49;70.94;99769.41;1272573;23;697;-65
2023/03/13 00:04:52;;;;;;;;;;;;;;;13.49;71.06;99758.72;1273581;23;661;-65
2023/03/13 00:05:42;;;;;;;;;;;;;;;13.49;70.87;99760.53;1271889;23;673;-65
2023/03/13 00:06:32;;;;;;;;;;;;;;;13.48;71.14;99757.03;1273323;23;696;-65
2023/03/13 00:07:23;;;;;;;;;;;;;;;13.49;71.42;99752.50;1272728;23;630;-65
2023/03/13 00:08:14;;;;;;;;;;;;;;;13.48;71.14;99757.03;1271741;23;630;-65
2023/03/13 00:09:04;;;;;;;;;;;;;;;13.48;70.92;99757.03;1273582;23;664;-65
2023/03/13 00:09:54;;;;;;;;;;;;;;;13.48;71.38;99757.03;1271958;23;633;-65
2023/03/13 00:10:45;;;;;;;;;;;;;;;13.48;70.81;99751.66;1272499;23;621;-66
2023/03/13 00:11:35;;;;;;;;;;;;;;;13.48;71.16;99754.34;1272608;23;642;-65
2023/03/13 00:12:26;;;;;;;;;;;;;;;13.48;71.11;99740.97;1272354;23;649;-65
2023/03/13 00:13:16;;;;;;;;;;;;;;;13.49;70.81;99749.84;1272457;23;638;-65
2023/03/13 00:14:06;;;;;;;;;;;;;;;13.49;70.84;99741.81;1272581;23;685;-65
2023/03/13 00:14:57;;;;;;;;;;;;;;;13.47;71.48;99747.31;1272347;23;586;-65
2023/03/13 00:15:47;;;;;;;;;;;;;;;13.48;71.40;99751.66;1272723;23;649;-66
2023/03/13 00:16:38;;;;;;;;;;;;;;;13.48;70.82;99742.78;1272589;23;672;-65
2023/03/13 00:17:29;;;;;;;;;;;;;;;13.47;70.93;99744.63;1273640;23;804;-65
2023/03/13 00:18:19;;;;;;;;;;;;;;;13.47;70.84;99735.75;1272351;23;813;-65
2023/03/13 00:19:09;;;;;;;;;;;;;;;13.48;71.32;99735.59;1271725;23;642;-65
2023/03/13 00:20:00;;;;;;;;;;;;;;;13.47;71.61;99739.28;1271692;23;638;-65
2023/03/13 00:20:50;;;;;;;;;;;;;;;13.49;70.79;99734.63;1272418;23;681;-65
2023/03/13 00:21:41;;;;;;;;;;;;;;;13.48;70.78;99732.94;1272689;23;609;-65
2023/03/13 00:22:31;;;;;;;;;;;;;;;13.49;70.81;99737.31;1272485;23;610;-65
2023/03/13 00:23:22;;;;;;;;;;;;;;;13.46;71.41;99724.19;1272141;23;1202;-65
2023/03/13 00:24:12;;;;;;;;;;;;;;;13.47;70.81;99728.56;1272494;23;692;-65
2023/03/13 00:25:03;;;;;;;;;;;;;;;13.47;71.58;99727.72;1273359;23;593;-65
2023/03/13 00:25:53;;;;;;;;;;;;;;;13.47;71.39;99727.72;1272441;23;662;-65
2023/03/13 00:26:43;;;;;;;;;;;;;;;13.48;71.22;99722.22;1272584;23;662;-65
2023/03/13 00:27:34;;;;;;;;;;;;;;;13.49;71.18;99721.25;1272275;23;702;-65
2023/03/13 00:28:24;;;;;;;;;;;;;;;13.50;71.29;99709.53;1272815;23;803;-64
2023/03/13 00:29:15;;;;;;;;;;;;;;;13.50;71.31;99706.03;1274340;23;658;-65
2023/03/13 00:30:05;;;;;;;;;;;;;;;13.48;71.47;99714.19;1271919;23;653;-65
2023/03/13 00:30:55;;;;;;;;;;;;;;;13.46;70.95;99705.47;1272511;23;634;-65
2023/03/13 00:31:46;;;;;;;;;;;;;;;13.46;70.74;99699.28;1272639;23;674;-64
2023/03/13 00:32:36;;;;;;;;;;;;;;;13.46;71.35;99700.13;1271583;23;662;-65
2023/03/13 00:33:27;;;;;;;;;;;;;;;13.46;70.87;99697.44;1272914;23;634;-65
2023/03/13 00:34:17;;;;;;;;;;;;;;;13.45;71.18;99693.06;1273255;23;700;-65
2023/03/13 00:35:07;;;;;;;;;;;;;;;13.46;71.20;99689.41;1274227;23;653;-66
2023/03/13 00:35:58;;;;;;;;;;;;;;;13.47;71.42;99684.91;1272590;23;650;-65
2023/03/13 00:36:48;;;;;;;;;;;;;;;13.47;71.05;99682.22;1272678;23;739;-65
2023/03/13 00:37:39;;;;;;;;;;;;;;;13.47;70.64;99680.41;1272583;23;614;-65
2023/03/13 00:38:29;;;;;;;;;;;;;;;13.47;71.04;99675.03;1272653;23;629;-65
2023/03/13 00:39:20;;;;;;;;;;;;;;;13.47;70.76;99676.88;1272089;23;638;-65
2023/03/13 00:40:10;;;;;;;;;;;;;;;13.47;71.22;99676.88;1272431;23;661;-65
2023/03/13 00:41:01;;;;;;;;;;;;;;;13.47;71.12;99667.00;1273519;23;613;-65
2023/03/13 00:41:51;;;;;;;;;;;;;;;13.46;71.68;99668.00;1271584;23;665;-65
2023/03/13 00:42:41;;;;;;;;;;;;;;;13.47;70.96;99668.84;1272569;23;673;-65
2023/03/13 00:43:32;;;;;;;;;;;;;;;13.47;70.82;99664.34;1271460;23;666;-65
2023/03/13 00:44:22;;;;;;;;;;;;;;;13.48;70.98;99662.50;1272321;23;645;-64
2023/03/13 00:45:13;;;;;;;;;;;;;;;13.47;71.31;99669.69;1274136;23;669;-65
2023/03/13 00:46:03;;;;;;;;;;;;;;;13.47;71.13;99658.13;1271518;23;665;-65
2023/03/13 00:46:54;;;;;;;;;;;;;;;13.46;71.05;99662.66;1272859;23;642;-65
2023/03/13 00:47:44;;;;;;;;;;;;;;;13.45;71.35;99650.25;1273203;23;622;-66
2023/03/13 00:48:34;;;;;;;;;;;;;;;13.46;71.30;99651.94;1272374;23;630;-65
2023/03/13 00:49:25;;;;;;;;;;;;;;;13.46;70.71;99641.22;1272334;23;630;-65
2023/03/13 00:50:15;;;;;;;;;;;;;;;13.45;70.70;99639.56;1271675;23;537;-65
2023/03/13 00:51:06;;;;;;;;;;;;;;;13.46;70.89;99654.63;1274291;23;661;-65
2023/03/13 00:51:56;;;;;;;;;;;;;;;13.45;71.14;99644.91;1272579;23;681;-65
2023/03/13 00:52:46;;;;;;;;;;;;;;;13.45;71.81;99638.69;1272230;23;610;-65
2023/03/13 00:53:37;;;;;;;;;;;;;;;13.44;71.16;99637.84;1272308;23;657;-65
2023/03/13 00:54:27;;;;;;;;;;;;;;;13.46;71.04;99640.38;1272021;23;817;-65
2023/03/13 00:55:18;;;;;;;;;;;;;;;13.47;71.34;99631.38;1273371;23;637;-65
2023/03/13 00:56:08;;;;;;;;;;;;;;;13.46;72.00;99627.84;1272524;23;646;-65
2023/03/13 00:56:59;;;;;;;;;;;;;;;13.47;71.45;99629.53;1274333;23;660;-65
2023/03/13 00:57:49;;;;;;;;;;;;;;;13.47;71.19;99616.16;1271486;23;617;-66
2023/03/13 00:58:39;;;;;;;;;;;;;;;13.47;71.04;99618.84;1272487;23;684;-65
2023/03/13 00:59:30;;;;;;;;;;;;;;;13.48;70.77;99617.00;1272318;23;673;-65
2023/03/13 01:00:20;;;;;;;;;;;;;;;13.49;70.87;99608.81;1273996;23;649;-65
2023/03/13 01:01:11;;;;;;;;;;;;;;;13.49;71.47;99613.34;1272229;23;625;-65
2023/03/13 01:02:01;;;;;;;;;;;;;;;13.49;71.45;99614.19;1272395;23;691;-65
2023/03/13 01:02:52;;;;;;;;;;;;;;;13.49;71.11;99611.50;1274040;23;645;-65
2023/03/13 01:03:42;;;;;;;;;;;;;;;13.49;70.79;99608.81;1271625;23;740;-65
2023/03/13 01:04:32;;;;;;;;;;;;;;;13.49;71.02;99611.50;1272627;23;610;-65
2023/03/13 01:05:24;;;;;;;;;;;;;;;13.49;70.85;99605.31;1274428;23;852;-67
2023/03/13 01:06:15;;;;;;;;;;;;;;;13.48;71.37;99604.47;1273264;23;665;-65
2023/03/13 01:07:05;;;;;;;;;;;;;;;13.47;70.94;99596.59;1271492;23;610;-64
2023/03/13 01:07:55;;;;;;;;;;;;;;;13.46;71.55;99598.41;1272425;23;637;-65
2023/03/13 01:08:46;;;;;;;;;;;;;;;13.47;70.98;99597.44;1272111;23;618;-65
2023/03/13 01:09:36;;;;;;;;;;;;;;;13.48;71.51;99590.25;1271390;23;638;-65
2023/03/13 01:10:27;;;;;;;;;;;;;;;13.48;71.31;99606.31;1272434;23;649;-64
2023/03/13 01:11:17;;;;;;;;;;;;;;;13.48;71.71;99591.09;1272619;23;621;-65
2023/03/13 01:12:07;;;;;;;;;;;;;;;13.48;70.78;99587.56;1273910;23;625;-64
2023/03/13 01:12:58;;;;;;;;;;;;;;;13.48;71.11;99601.78;1272320;23;605;-65
2023/03/13 01:13:48;;;;;;;;;;;;;;;13.48;71.35;99591.09;1272495;23;598;-65
2023/03/13 01:14:39;;;;;;;;;;;;;;;13.48;71.54;99582.22;1274158;23;669;-65
2023/03/13 01:15:29;;;;;;;;;;;;;;;13.46;71.22;99587.72;1272467;23;629;-64
2023/03/13 01:16:19;;;;;;;;;;;;;;;13.46;71.68;99582.34;1272122;23;605;-64
2023/03/13 01:17:10;;;;;;;;;;;;;;;13.46;71.94;99576.16;1271523;23;609;-64
2023/03/13 01:18:00;;;;;;;;;;;;;;;13.45;71.56;99561.94;1272512;23;686;-64
2023/03/13 01:18:51;;;;;;;;;;;;;;;13.46;71.78;99568.13;1272467;23;666;-65
2023/03/13 01:19:41;;;;;;;;;;;;;;;13.47;71.39;99561.78;1272563;23;696;-65
2023/03/13 01:20:32;;;;;;;;;;;;;;;13.46;71.30;99571.66;1272110;23;1930;-65
2023/03/13 01:21:22;;;;;;;;;;;;;;;13.47;71.09;99575.19;1272206;23;725;-64
2023/03/13 01:22:13;;;;;;;;;;;;;;;13.47;71.75;99575.19;1274025;23;617;-65
2023/03/13 01:23:03;;;;;;;;;;;;;;;13.47;71.43;99568.00;1271229;23;1193;-64
2023/03/13 01:23:53;;;;;;;;;;;;;;;13.47;71.43;99561.78;1272360;23;653;-65
2023/03/13 01:24:45;;;;;;;;;;;;;;;13.46;71.33;99563.63;1272493;23;646;-65
2023/03/13 01:25:35;;;;;;;;;;;;;;;13.46;71.68;99560.09;1273241;23;665;-65
2023/03/13 01:26:26;;;;;;;;;;;;;;;13.46;71.07;99557.44;1273175;23;637;-64
2023/03/13 01:27:16;;;;;;;;;;;;;;;13.45;71.61;99555.75;1272211;23;688;-65
2023/03/13 01:28:07;;;;;;;;;;;;;;;13.47;71.75;99548.41;1274129;23;614;-65
2023/03/13 01:28:57;;;;;;;;;;;;;;;13.48;71.91;99542.06;1272194;23;645;-64
2023/03/13 01:29:47;;;;;;;;;;;;;;;13.46;71.75;99544.91;1272428;23;609;-64
2023/03/13 01:30:38;;;;;;;;;;;;;;;13.45;71.59;99542.38;1272514;23;618;-65
2023/03/13 01:31:28;;;;;;;;;;;;;;;13.44;70.91;99530.81;1272585;23;622;-65
2023/03/13 01:32:19;;;;;;;;;;;;;;;13.43;71.15;99531.84;1271455;23;634;-65
2023/03/13 01:33:09;;;;;;;;;;;;;;;13.45;71.75;99534.34;1272336;23;677;-65
2023/03/13 01:34:00;;;;;;;;;;;;;;;13.46;71.86;99531.50;1272145;23;602;-65
2023/03/13 01:34:50;;;;;;;;;;;;;;;13.46;71.07;99523.47;1272437;23;661;-65
2023/03/13 01:35:41;;;;;;;;;;;;;;;13.45;71.28;99524.47;1272373;23;618;-65
2023/03/13 01:36:31;;;;;;;;;;;;;;;13.45;70.88;99513.78;1272253;23;649;-64
2023/03/13 01:37:21;;;;;;;;;;;;;;;13.46;71.51;99517.28;1272434;23;685;-64
2023/03/13 01:38:12;;;;;;;;;;;;;;;13.46;71.41;99522.63;1272363;23;673;-65
2023/03/13 01:39:02;;;;;;;;;;;;;;;13.46;71.73;99514.63;1271864;23;626;-65
2023/03/13 01:39:53;;;;;;;;;;;;;;;13.46;71.37;99514.63;1272182;23;602;-64
2023/03/13 01:40:43;;;;;;;;;;;;;;;13.45;71.44;99511.09;1271462;23;1944;-65
2023/03/13 01:41:34;;;;;;;;;;;;;;;13.45;71.54;99511.09;1272207;23;646;-64
2023/03/13 01:42:24;;;;;;;;;;;;;;;13.45;70.80;99510.25;1272396;23;700;-65
2023/03/13 01:43:15;;;;;;;;;;;;;;;13.44;71.53;99511.25;1272253;23;614;-65
2023/03/13 01:44:05;;;;;;;;;;;;;;;13.45;71.40;99510.25;1271557;23;672;-65
2023/03/13 01:44:56;;;;;;;;;;;;;;;13.44;71.71;99504.06;1274058;23;652;-66
2023/03/13 01:45:46;;;;;;;;;;;;;;;13.45;70.88;99496.88;1272282;23;685;-65
2023/03/13 01:46:36;;;;;;;;;;;;;;;13.46;70.68;99487.84;1271703;23;697;-65
2023/03/13 01:47:27;;;;;;;;;;;;;;;13.47;70.79;99495.72;1274240;23;653;-65
2023/03/13 01:48:17;;;;;;;;;;;;;;;13.47;71.55;99498.41;1271490;23;595;-66
2023/03/13 01:49:08;;;;;;;;;;;;;;;13.47;71.42;99503.75;1272842;23;598;-66
2023/03/13 01:49:58;;;;;;;;;;;;;;;13.48;71.31;99496.56;1273144;23;645;-65
2023/03/13 01:50:49;;;;;;;;;;;;;;;13.47;71.03;99498.41;1271927;23;664;-66
2023/03/13 01:51:39;;;;;;;;;;;;;;;13.48;70.55;99491.22;1272210;23;654;-65
2023/03/13 01:52:30;;;;;;;;;;;;;;;13.47;71.32;99493.06;1272241;23;619;-65
2023/03/13 01:53:21;;;;;;;;;;;;;;;13.47;70.71;99485.03;1270788;23;642;-65
2023/03/13 01:54:11;;;;;;;;;;;;;;;13.47;71.15;99485.03;1272298;23;680;-65
2023/03/13 01:55:02;;;;;;;;;;;;;;;13.45;70.90;99481.66;1274325;23;739;-65
2023/03/13 01:55:52;;;;;;;;;;;;;;;13.44;71.41;99482.66;1271276;23;625;-65
2023/03/13 01:56:42;;;;;;;;;;;;;;;13.46;70.55;99479.81;1273004;23;650;-65
2023/03/13 01:57:33;;;;;;;;;;;;;;;13.46;70.73;99479.81;1272934;23;641;-65
2023/03/13 01:58:23;;;;;;;;;;;;;;;13.48;70.88;99478.69;1272241;23;629;-65
2023/03/13 01:59:14;;;;;;;;;;;;;;;13.47;71.65;99474.31;1273849;23;751;-65
2023/03/13 02:00:06;;;;;;;;;;;;;;;13.44;71.75;99469.28;1272532;23;622;-66
2023/03/13 02:00:57;;;;;;;;;;;;;;;13.42;71.22;99460.56;1273017;23;618;-66
2023/03/13 02:01:47;;;;;;;;;;;;;;;13.41;71.23;99458.91;1272573;23;681;-66
2023/03/13 02:02:38;;;;;;;;;;;;;;;13.42;71.71;99455.22;1272651;23;630;-66
2023/03/13 02:03:28;;;;;;;;;;;;;;;13.41;71.56;99466.06;1272138;23;657;-66
2023/03/13 02:04:18;;;;;;;;;;;;;;;13.42;71.08;99455.22;1273048;23;661;-66
2023/03/13 02:05:09;;;;;;;;;;;;;;;13.40;71.51;99449.19;1272083;23;622;-66
2023/03/13 02:06:00;;;;;;;;;;;;;;;13.41;71.92;99458.91;1272973;23;698;-67
2023/03/13 02:06:50;;;;;;;;;;;;;;;13.44;71.84;99455.03;1271880;23;673;-66
2023/03/13 02:07:40;;;;;;;;;;;;;;;13.44;71.15;99452.38;1271473;23;665;-66
2023/03/13 02:08:31;;;;;;;;;;;;;;;13.43;71.74;99448.88;1272415;23;524;-65
2023/03/13 02:09:21;;;;;;;;;;;;;;;13.43;71.22;99438.19;1272798;23;614;-66
2023/03/13 02:10:12;;;;;;;;;;;;;;;13.42;71.96;99444.53;1273464;23;796;-66
2023/03/13 02:11:02;;;;;;;;;;;;;;;13.43;71.51;99446.22;1272868;23;637;-65
2023/03/13 02:11:52;;;;;;;;;;;;;;;13.42;71.90;99423.13;1272725;23;569;-65
2023/03/13 02:12:43;;;;;;;;;;;;;;;13.42;71.53;99428.47;1272514;23;654;-65
2023/03/13 02:13:33;;;;;;;;;;;;;;;13.42;71.83;99428.47;1274365;23;567;-66
2023/03/13 02:14:24;;;;;;;;;;;;;;;13.44;71.30;99430.97;1274452;23;610;-65
2023/03/13 02:15:14;;;;;;;;;;;;;;;13.44;71.58;99430.97;1272875;23;661;-65
2023/03/13 02:16:05;;;;;;;;;;;;;;;13.42;71.69;99431.13;1273027;23;669;-65
2023/03/13 02:16:55;;;;;;;;;;;;;;;13.43;71.47;99426.63;1272498;23;686;-65
2023/03/13 02:17:45;;;;;;;;;;;;;;;13.43;71.29;99407.91;1272736;23;685;-65
2023/03/13 02:18:37;;;;;;;;;;;;;;;13.44;71.65;99417.56;1274329;23;629;-66
2023/03/13 02:19:27;;;;;;;;;;;;;;;13.41;71.39;99410.72;1273572;23;606;-65
2023/03/13 02:20:19;;;;;;;;;;;;;;;13.41;71.66;99413.41;1272727;23;661;-66
2023/03/13 02:21:10;;;;;;;;;;;;;;;13.42;71.41;99404.38;1273793;23;648;-66
2023/03/13 02:22:00;;;;;;;;;;;;;;;13.44;72.00;99406.88;1272866;23;863;-66
2023/03/13 02:22:50;;;;;;;;;;;;;;;13.44;71.88;99401.53;1271987;23;657;-66
2023/03/13 02:23:41;;;;;;;;;;;;;;;13.45;72.08;99403.22;1272488;23;630;-65
2023/03/13 02:24:31;;;;;;;;;;;;;;;13.45;71.91;99393.34;1272919;23;697;-66
2023/03/13 02:25:22;;;;;;;;;;;;;;;13.46;71.37;99404.88;1274651;23;664;-66
2023/03/13 02:26:12;;;;;;;;;;;;;;;13.44;71.97;99402.38;1271951;23;626;-66
2023/03/13 02:27:03;;;;;;;;;;;;;;;13.43;72.22;99405.22;1272150;23;630;-66
2023/03/13 02:27:53;;;;;;;;;;;;;;;13.42;71.72;99398.19;1274270;23;602;-66
2023/03/13 02:28:43;;;;;;;;;;;;;;;13.41;71.51;99405.38;1272587;23;670;-66
2023/03/13 02:29:34;;;;;;;;;;;;;;;13.45;71.36;99400.53;1272699;23;642;-66
2023/03/13 02:30:24;;;;;;;;;;;;;;;13.44;71.42;99386.31;1272049;23;642;-65
2023/03/13 02:31:15;;;;;;;;;;;;;;;13.46;71.95;99397.72;1273637;23;661;-65
2023/03/13 02:32:05;;;;;;;;;;;;;;;13.47;71.91;99395.88;1272780;23;658;-66
2023/03/13 02:32:55;;;;;;;;;;;;;;;13.46;72.02;99381.66;1272848;23;625;-66
2023/03/13 02:33:46;;;;;;;;;;;;;;;13.47;71.16;99385.16;1272680;23;642;-66
2023/03/13 02:34:36;;;;;;;;;;;;;;;13.46;71.50;99387.00;1272623;23;661;-66
2023/03/13 02:35:27;;;;;;;;;;;;;;;13.45;71.98;99382.63;1272463;23;658;-65
2023/03/13 02:36:17;;;;;;;;;;;;;;;13.46;71.62;99378.97;1272622;23;634;-66
2023/03/13 02:37:09;;;;;;;;;;;;;;;13.45;72.01;99385.31;1273425;23;697;-66
2023/03/13 02:38:00;;;;;;;;;;;;;;;13.45;71.07;99381.81;1273463;23;632;-66
2023/03/13 02:38:50;;;;;;;;;;;;;;;13.45;71.50;99388.00;1272828;23;720;-65
2023/03/13 02:39:41;;;;;;;;;;;;;;;13.44;71.39;99386.31;1272721;23;653;-65
2023/03/13 02:40:31;;;;;;;;;;;;;;;13.46;71.80;99378.13;1272390;23;1956;-65
2023/03/13 02:41:21;;;;;;;;;;;;;;;13.45;71.35;99379.13;1272632;23;705;-65
2023/03/13 02:42:12;;;;;;;;;;;;;;;13.45;72.17;99374.63;1272614;23;681;-65
2023/03/13 02:43:02;;;;;;;;;;;;;;;13.44;72.03;99364.91;1272788;23;606;-65
2023/03/13 02:43:53;;;;;;;;;;;;;;;13.45;72.12;99377.28;1273003;23;657;-65
2023/03/13 02:44:45;;;;;;;;;;;;;;;13.45;71.79;99371.09;1272600;23;654;-65
2023/03/13 02:45:35;;;;;;;;;;;;;;;13.45;71.17;99371.94;1273421;23;610;-65
2023/03/13 02:46:26;;;;;;;;;;;;;;;13.45;71.37;99379.97;1272875;23;630;-65
2023/03/13 02:47:16;;;;;;;;;;;;;;;13.45;72.01;99368.41;1272868;23;650;-65
2023/03/13 02:48:06;;;;;;;;;;;;;;;13.45;72.08;99366.59;1272253;23;646;-65
2023/03/13 02:48:58;;;;;;;;;;;;;;;13.44;72.03;99364.91;1271548;23;644;-66
2023/03/13 02:49:49;;;;;;;;;;;;;;;13.45;71.71;99369.25;1273189;23;633;-65
2023/03/13 02:50:40;;;;;;;;;;;;;;;13.44;71.45;99361.38;1273401;23;648;-66
2023/03/13 02:51:30;;;;;;;;;;;;;;;13.44;71.35;99375.59;1272210;23;657;-66
2023/03/13 02:52:21;;;;;;;;;;;;;;;13.45;71.90;99369.25;1272712;23;649;-65
2023/03/13 02:53:11;;;;;;;;;;;;;;;13.45;71.88;99365.75;1271959;23;637;-65
2023/03/13 02:54:02;;;;;;;;;;;;;;;13.44;71.46;99364.06;1272787;23;618;-65
2023/03/13 02:54:52;;;;;;;;;;;;;;;13.44;71.65;99375.59;1271842;23;598;-65
2023/03/13 02:55:43;;;;;;;;;;;;;;;13.45;71.31;99355.03;1272761;23;610;-65
2023/03/13 02:56:33;;;;;;;;;;;;;;;13.45;71.15;99360.38;1272523;23;630;-65
2023/03/13 02:57:23;;;;;;;;;;;;;;;13.44;71.29;99370.25;1271985;23;688;-65
2023/03/13 02:58:14;;;;;;;;;;;;;;;13.45;71.33;99366.59;1274727;23;606;-65
2023/03/13 02:59:05;;;;;;;;;;;;;;;13.46;71.59;99362.91;1272697;23;672;-66
2023/03/13 02:59:56;;;;;;;;;;;;;;;13.46;71.41;99372.78;1272408;23;685;-65
2023/03/13 03:00:46;;;;;;;;;;;;;;;13.46;71.98;99378.13;1272418;23;1889;-65
2023/03/13 03:01:36;;;;;;;;;;;;;;;13.47;71.48;99379.81;1272639;23;665;-65
2023/03/13 03:02:27;;;;;;;;;;;;;;;13.46;71.57;99362.91;1272501;23;594;-65
2023/03/13 03:03:17;;;;;;;;;;;;;;;13.46;71.88;99378.13;1272490;23;799;-65
2023/03/13 03:04:08;;;;;;;;;;;;;;;13.46;71.34;99372.78;1272531;23;634;-65
2023/03/13 03:04:58;;;;;;;;;;;;;;;13.44;71.98;99370.25;1272783;23;634;-65
2023/03/13 03:05:49;;;;;;;;;;;;;;;13.46;71.82;99367.44;1272144;23;644;-65
2023/03/13 03:06:39;;;;;;;;;;;;;;;13.45;71.14;99371.94;1272702;23;653;-65
2023/03/13 03:07:30;;;;;;;;;;;;;;;13.47;71.81;99372.63;1272747;23;614;-64
2023/03/13 03:08:20;;;;;;;;;;;;;;;13.46;71.26;99376.28;1272528;23;621;-65
2023/03/13 03:09:10;;;;;;;;;;;;;;;13.46;71.30;99365.59;1272601;23;700;-65
2023/03/13 03:10:01;;;;;;;;;;;;;;;13.47;71.33;99364.59;1274300;23;723;-65
2023/03/13 03:10:51;;;;;;;;;;;;;;;13.47;71.81;99359.25;1272543;23;661;-65
2023/03/13 03:11:42;;;;;;;;;;;;;;;13.48;71.07;99374.31;1272603;23;626;-65
2023/03/13 03:12:32;;;;;;;;;;;;;;;13.48;71.10;99370.78;1272436;23;637;-65
2023/03/13 03:13:22;;;;;;;;;;;;;;;13.46;71.51;99368.28;1272589;23;704;-65
2023/03/13 03:14:13;;;;;;;;;;;;;;;13.47;71.89;99374.47;1274145;23;661;-65
2023/03/13 03:15:03;;;;;;;;;;;;;;;13.46;72.01;99373.63;1272831;23;653;-65
2023/03/13 03:15:54;;;;;;;;;;;;;;;13.46;71.86;99365.59;1274576;23;672;-65
2023/03/13 03:16:44;;;;;;;;;;;;;;;13.45;71.48;99368.41;1272748;23;654;-64
2023/03/13 03:17:35;;;;;;;;;;;;;;;13.46;71.25;99368.28;1272840;23;656;-64
2023/03/13 03:18:26;;;;;;;;;;;;;;;13.45;71.75;99360.38;1273638;23;617;-64
2023/03/13 03:19:16;;;;;;;;;;;;;;;13.45;72.13;99363.06;1271895;23;621;-65
2023/03/13 03:20:10;;;;;;;;;;;;;;;13.44;72.24;99362.22;1272257;23;661;-65
2023/03/13 03:21:01;;;;;;;;;;;;;;;13.45;72.19;99360.38;1271913;23;628;-65
2023/03/13 03:21:51;;;;;;;;;;;;;;;13.47;72.02;99353.06;1272727;23;609;-65
2023/03/13 03:22:42;;;;;;;;;;;;;;;13.47;71.27;99356.56;1272833;23;677;-65
2023/03/13 03:23:32;;;;;;;;;;;;;;;13.48;71.49;99371.63;1272596;23;618;-65
2023/03/13 03:24:23;;;;;;;;;;;;;;;13.48;71.31;99355.56;1272717;23;773;-65
2023/03/13 03:25:13;;;;;;;;;;;;;;;13.48;71.76;99360.94;1272554;23;602;-65
2023/03/13 03:26:04;;;;;;;;;;;;;;;13.49;71.55;99345.72;1272572;23;614;-65
2023/03/13 03:26:54;;;;;;;;;;;;;;;13.47;71.81;99351.22;1272399;23;680;-65
2023/03/13 03:27:45;;;;;;;;;;;;;;;13.48;71.46;99354.75;1272000;23;690;-65
2023/03/13 03:28:35;;;;;;;;;;;;;;;13.47;71.55;99337.84;1272393;23;653;-65
2023/03/13 03:29:26;;;;;;;;;;;;;;;13.47;71.73;99339.66;1272481;23;664;-65
2023/03/13 03:30:17;;;;;;;;;;;;;;;13.49;72.05;99343.03;1273366;23;665;-65
2023/03/13 03:31:07;;;;;;;;;;;;;;;13.48;71.55;99336.84;1271799;23;641;-65
2023/03/13 03:31:58;;;;;;;;;;;;;;;13.47;71.73;99332.50;1272751;23;614;-65
2023/03/13 03:32:48;;;;;;;;;;;;;;;13.48;72.32;99336.00;1274545;23;621;-65
2023/03/13 03:33:38;;;;;;;;;;;;;;;13.45;72.19;99345.19;1272902;23;646;-65
2023/03/13 03:34:29;;;;;;;;;;;;;;;13.46;72.25;99346.03;1271329;23;669;-65
2023/03/13 03:35:19;;;;;;;;;;;;;;;13.45;72.16;99339.81;1273261;23;527;-65
2023/03/13 03:36:10;;;;;;;;;;;;;;;13.44;71.73;99332.78;1273652;23;633;-65
2023/03/13 03:37:00;;;;;;;;;;;;;;;13.45;71.81;99339.81;1272777;23;673;-65
2023/03/13 03:37:50;;;;;;;;;;;;;;;13.45;71.98;99337.16;1272565;23;660;-65
2023/03/13 03:38:41;;;;;;;;;;;;;;;13.46;71.32;99346.03;1274146;23;878;-65
2023/03/13 03:39:31;;;;;;;;;;;;;;;13.48;71.66;99330.66;1272391;23;668;-65
2023/03/13 03:40:22;;;;;;;;;;;;;;;13.50;71.53;99342.03;1271496;23;602;-66
2023/03/13 03:41:15;;;;;;;;;;;;;;;13.50;72.09;99331.34;1272528;23;665;-66
2023/03/13 03:42:05;;;;;;;;;;;;;;;13.49;71.54;99341.22;1271790;23;606;-65
2023/03/13 03:42:56;;;;;;;;;;;;;;;13.49;71.58;99332.34;1274397;23;676;-65
2023/03/13 03:43:46;;;;;;;;;;;;;;;13.49;72.29;99337.69;1272476;23;665;-65
2023/03/13 03:44:37;;;;;;;;;;;;;;;13.47;71.77;99343.19;1272668;23;637;-66
2023/03/13 03:45:27;;;;;;;;;;;;;;;13.47;71.65;99326.28;1272382;23;661;-65
2023/03/13 03:46:18;;;;;;;;;;;;;;;13.46;71.47;99335.31;1271884;23;626;-65
2023/03/13 03:47:08;;;;;;;;;;;;;;;13.44;71.83;99330.13;1272298;23;645;-65
2023/03/13 03:47:59;;;;;;;;;;;;;;;13.45;71.89;99330.97;1271386;23;634;-65
2023/03/13 03:48:49;;;;;;;;;;;;;;;13.45;71.81;99318.41;1273147;23;622;-65
2023/03/13 03:49:39;;;;;;;;;;;;;;;13.44;72.40;99338.13;1273391;23;602;-65
2023/03/13 03:50:30;;;;;;;;;;;;;;;13.45;71.42;99339.81;1273284;23;672;-65
2023/03/13 03:51:20;;;;;;;;;;;;;;;13.46;72.10;99325.44;1272415;23;645;-65
2023/03/13 03:52:11;;;;;;;;;;;;;;;13.46;71.92;99320.09;1272732;23;614;-65
2023/03/13 03:53:01;;;;;;;;;;;;;;;13.46;72.00;99314.75;1272447;23;676;-65
2023/03/13 03:53:52;;;;;;;;;;;;;;;13.47;71.80;99319.09;1272551;23;677;-65
2023/03/13 03:54:42;;;;;;;;;;;;;;;13.46;71.72;99325.44;1271808;23;704;-65
2023/03/13 03:55:32;;;;;;;;;;;;;;;13.48;72.37;99318.13;1272428;23;632;-65
2023/03/13 03:56:23;;;;;;;;;;;;;;;13.49;72.31;99321.63;1272570;23;657;-65
2023/03/13 03:57:13;;;;;;;;;;;;;;;13.50;71.68;99321.47;1272419;23;649;-65
2023/03/13 03:58:04;;;;;;;;;;;;;;;13.49;72.41;99314.44;1272550;23;633;-65
2023/03/13 03:58:54;;;;;;;;;;;;;;;13.51;71.53;99314.28;1271562;23;669;-65
2023/03/13 03:59:44;;;;;;;;;;;;;;;13.47;71.76;99305.72;1272453;23;638;-65
2023/03/13 04:00:35;;;;;;;;;;;;;;;13.49;71.98;99301.06;1273158;23;1885;-65
2023/03/13 04:01:25;;;;;;;;;;;;;;;13.47;71.62;99305.72;1272351;23;629;-65
2023/03/13 04:02:16;;;;;;;;;;;;;;;13.48;71.70;99311.91;1272577;23;617;-65
2023/03/13 04:03:06;;;;;;;;;;;;;;;13.49;71.61;99309.09;1271724;23;648;-64
2023/03/13 04:03:57;;;;;;;;;;;;;;;13.50;71.86;99309.94;1273553;23;743;-64
2023/03/13 04:04:47;;;;;;;;;;;;;;;13.49;71.78;99301.06;1272709;23;705;-65
2023/03/13 04:05:38;;;;;;;;;;;;;;;13.50;72.04;99300.06;1272830;23;634;-65
2023/03/13 04:06:28;;;;;;;;;;;;;;;13.50;71.66;99299.22;1272612;23;630;-65
2023/03/13 04:07:19;;;;;;;;;;;;;;;13.49;71.67;99298.38;1272188;23;629;-64
2023/03/13 04:08:09;;;;;;;;;;;;;;;13.47;71.70;99297.69;1274675;23;597;-64
2023/03/13 04:08:59;;;;;;;;;;;;;;;13.49;72.31;99295.72;1272701;23;641;-64
2023/03/13 04:09:50;;;;;;;;;;;;;;;13.50;71.61;99309.94;1274232;23;650;-65
2023/03/13 04:10:40;;;;;;;;;;;;;;;13.51;71.41;99309.78;1272419;23;666;-65
2023/03/13 04:11:31;;;;;;;;;;;;;;;13.49;72.05;99297.53;1272482;23;602;-65
2023/03/13 04:12:21;;;;;;;;;;;;;;;13.49;71.68;99298.38;1272368;23;653;-65
2023/03/13 04:13:12;;;;;;;;;;;;;;;13.51;71.30;99306.25;1272552;23;630;-65
2023/03/13 04:14:02;;;;;;;;;;;;;;;13.49;72.41;99298.38;1272544;23;658;-65
2023/03/13 04:14:52;;;;;;;;;;;;;;;13.50;72.13;99307.25;1271948;23;649;-65
2023/03/13 04:15:43;;;;;;;;;;;;;;;13.50;71.43;99302.75;1272882;23;669;-65
2023/03/13 04:16:33;;;;;;;;;;;;;;;13.50;71.60;99310.78;1271532;23;602;-65
2023/03/13 04:17:24;;;;;;;;;;;;;;;13.51;71.71;99316.97;1272715;23;610;-65
2023/03/13 04:18:15;;;;;;;;;;;;;;;13.50;72.30;99302.75;1272020;23;674;-65
2023/03/13 04:19:06;;;;;;;;;;;;;;;13.49;71.84;99301.06;1271917;23;630;-65
2023/03/13 04:19:56;;;;;;;;;;;;;;;13.48;71.69;99310.09;1273333;23;598;-65
2023/03/13 04:20:47;;;;;;;;;;;;;;;13.49;71.98;99294.88;1272419;23;1931;-65
2023/03/13 04:21:38;;;;;;;;;;;;;;;13.47;71.51;99295.03;1272565;23;630;-66
2023/03/13 04:22:28;;;;;;;;;;;;;;;13.46;72.19;99290.66;1271561;23;700;-65
2023/03/13 04:23:19;;;;;;;;;;;;;;;13.48;71.89;99301.22;1273374;23;1071;-65
2023/03/13 04:24:09;;;;;;;;;;;;;;;13.48;72.42;99291.34;1272655;23;673;-65
2023/03/13 04:25:00;;;;;;;;;;;;;;;13.48;72.16;99294.03;1271558;23;642;-65
2023/03/13 04:25:50;;;;;;;;;;;;;;;13.48;72.00;99296.72;1273202;23;626;-65
2023/03/13 04:26:41;;;;;;;;;;;;;;;13.49;71.48;99286.84;1273390;23;590;-65
2023/03/13 04:27:31;;;;;;;;;;;;;;;13.48;71.62;99283.31;1272272;23;662;-65
2023/03/13 04:28:21;;;;;;;;;;;;;;;13.49;71.58;99293.03;1272432;23;653;-65
2023/03/13 04:29:12;;;;;;;;;;;;;;;13.51;71.75;99288.38;1274371;23;700;-65
2023/03/13 04:30:03;;;;;;;;;;;;;;;13.50;71.44;99289.38;1272562;23;617;-65